Kelly Lee — WDB7141 — position and weather

sailwx.info

Track history (hours):
 
Tides and Currents Weather Stations Pressure Air Temp Water Temp Dewpoint Dewpoint Depression Visibility Wind Speed Wind Dir Waves Ship Positions

Kelly Lee

Owner: Magnolia Marine Transport Co, Vicksburg, MS. More information available from US FCC via Universal Licensing System and Coast Guard Vessel Documentation Center.

Last reported at 2018-Jun-08 08:29 UTC. Time now 2018-Jun-23 06:24 UTC.
Position N 31°42' W 091°24'.
Warning: this ship's position is 14 days out of date.

Length 45 m; draft 2.7 m.

Type: Towing. MMSI: 366937050.

Date/timePositionNaut miles runAvg speedWind from/ knotsBaromVisibWave heightAir tempDewpointWater temp
2018-Jun-08 08:29N 31°42' W 091°24'5 8.9
2018-Jun-08 07:57N 31°47' W 091°22'4 9.0
2018-Jun-08 07:30N 31°51' W 091°21'6 8.4
2018-Jun-08 06:46N 31°53' W 091°14'4 8.5
2018-Jun-08 06:18N 31°56' W 091°12'3 8.8
2018-Jun-08 06:00N 31°59' W 091°11'5 8.4
2018-Jun-08 05:28N 31°60' W 091°05'4 9.1
2018-Jun-08 05:00N 32°04' W 091°03'4 8.5
2018-Jun-08 04:30N 32°07' W 091°07'4 7.6
2018-Jun-08 04:00N 32°07' W 091°02'4 8.1
2018-Jun-08 03:30N 32°11' W 090°60'4 9.0
2018-Jun-08 03:00N 32°15' W 090°59'5 9.0
2018-Jun-08 02:30N 32°18' W 090°55'3 5.6
2018-Jun-08 02:00N 32°21' W 090°56'3 6.9
2018-Jun-08 01:30N 32°22' W 091°00'4 7.5
2018-Jun-08 01:00N 32°25' W 091°01'4 8.8
2018-Jun-08 00:30N 32°27' W 091°05'4 7.8
2018-Jun-07 23:59N 32°31' W 091°06'4 8.1
2018-Jun-07 23:30N 32°35' W 091°07'  
Track history (hours):
 
Tides and Currents Weather Stations Pressure Air Temp Water Temp Dewpoint Dewpoint Depression Visibility Wind Speed Wind Dir Waves Ship Positions

Kelly Lee

Owner: Magnolia Marine Transport Co, Vicksburg, MS. More information available from US FCC via Universal Licensing System and Coast Guard Vessel Documentation Center.

Last reported at 2018-Jun-08 08:29 UTC. Time now 2018-Jun-23 06:24 UTC.
Position N 31°42' W 091°24'.
Warning: this ship's position is 14 days out of date.

Length 45 m; draft 2.7 m.

Type: Towing. MMSI: 366937050.

Date/timePositionNaut miles runAvg speedWind from/ knotsBaromVisibWave heightAir tempDewpointWater temp
2018-Jun-08 08:29N 31°42' W 091°24'5 8.9
2018-Jun-08 07:57N 31°47' W 091°22'4 9.0
2018-Jun-08 07:30N 31°51' W 091°21'6 8.4
2018-Jun-08 06:46N 31°53' W 091°14'4 8.5
2018-Jun-08 06:18N 31°56' W 091°12'3 8.8
2018-Jun-08 06:00N 31°59' W 091°11'5 8.4
2018-Jun-08 05:28N 31°60' W 091°05'4 9.1
2018-Jun-08 05:00N 32°04' W 091°03'4 8.5
2018-Jun-08 04:30N 32°07' W 091°07'4 7.6
2018-Jun-08 04:00N 32°07' W 091°02'4 8.1
2018-Jun-08 03:30N 32°11' W 090°60'4 9.0
2018-Jun-08 03:00N 32°15' W 090°59'5 9.0
2018-Jun-08 02:30N 32°18' W 090°55'3 5.6
2018-Jun-08 02:00N 32°21' W 090°56'3 6.9
2018-Jun-08 01:30N 32°22' W 091°00'4 7.5
2018-Jun-08 01:00N 32°25' W 091°01'4 8.8
2018-Jun-08 00:30N 32°27' W 091°05'4 7.8
2018-Jun-07 23:59N 32°31' W 091°06'4 8.1
2018-Jun-07 23:30N 32°35' W 091°07'  

Dump ship's entire track history